createdAt,value
2022-11-25T00:13:37.153Z,4.60
2022-11-25T00:28:45.847Z,4.50
2022-11-25T00:39:01.284Z,4.60
2022-11-25T00:49:47.138Z,4.50
2022-11-25T01:35:07.434Z,4.30
2022-11-25T01:40:10.029Z,4.40
2022-11-25T01:45:28.379Z,4.10
2022-11-25T01:50:33.801Z,4.10
2022-11-25T02:05:52.501Z,3.90
2022-11-25T02:10:55.852Z,4.10
2022-11-25T02:31:06.448Z,4.20
2022-11-25T02:36:21.200Z,4.20
2022-11-25T02:41:30.420Z,4.10
2022-11-25T02:56:37.146Z,4.00
2022-11-25T03:37:12.755Z,3.80
2022-11-25T04:32:54.868Z,4.10
2022-11-25T04:58:14.431Z,4.00
2022-11-25T05:28:27.480Z,4.00
2022-11-25T05:43:33.991Z,4.20
2022-11-25T06:28:56.323Z,4.10
2022-11-25T07:14:17.305Z,3.90
2022-11-25T07:19:19.746Z,4.00
2022-11-25T07:24:21.427Z,4.00
2022-11-25T08:20:06.615Z,5.20
2022-11-25T08:25:08.543Z,5.50
2022-11-25T09:05:26.111Z,6.00
2022-11-25T09:15:29.864Z,5.90
2022-11-25T09:20:32.857Z,5.90
2022-11-25T09:25:35.557Z,5.90
2022-11-25T09:40:53.978Z,6.00
2022-11-25T09:46:23.207Z,6.10
2022-11-25T09:51:54.742Z,6.20
2022-11-25T09:57:17.677Z,6.50
2022-11-25T10:02:43.315Z,6.60
2022-11-25T10:07:51.369Z,6.60
2022-11-25T10:12:56.871Z,6.60
2022-11-25T10:18:03.128Z,6.60
2022-11-25T10:23:23.560Z,6.70
2022-11-25T10:28:33.563Z,6.80
2022-11-25T10:33:43.924Z,6.80
2022-11-25T10:38:55.014Z,7.00
2022-11-25T10:43:56.967Z,7.40
2022-11-25T10:49:17.455Z,7.60
2022-11-25T10:59:36.023Z,7.30
2022-11-25T11:04:51.462Z,7.30
2022-11-25T11:09:53.718Z,7.40
2022-11-25T11:15:22.881Z,7.40
2022-11-25T11:20:30.743Z,7.50
2022-11-25T11:25:35.261Z,7.50
2022-11-25T11:30:37.040Z,7.60
2022-11-25T11:35:42.044Z,7.60
2022-11-25T11:40:50.445Z,7.70
2022-11-25T11:45:52.140Z,7.50
2022-11-25T11:51:13.141Z,7.70
2022-11-25T11:56:41.791Z,7.70
2022-11-25T12:02:04.788Z,7.70
2022-11-25T12:07:37.785Z,7.60
2022-11-25T12:12:41.905Z,7.70
2022-11-25T12:17:53.463Z,7.70
2022-11-25T12:23:26.255Z,8.00
2022-11-25T12:28:38.467Z,8.00
2022-11-25T12:34:01.573Z,9.70
2022-11-25T12:39:31.717Z,8.10
2022-11-25T12:44:56.201Z,8.20
2022-11-25T12:49:58.269Z,8.30
2022-11-25T12:55:19.934Z,10.10
2022-11-25T13:00:43.417Z,8.30
2022-11-25T13:06:03.412Z,8.40
2022-11-25T13:11:19.762Z,8.20
2022-11-25T13:16:23.216Z,8.40
2022-11-25T13:21:27.437Z,8.50
2022-11-25T13:26:33.663Z,9.00
2022-11-25T13:32:05.309Z,8.40
2022-11-25T13:37:33.521Z,8.60
2022-11-25T13:42:44.240Z,8.60
2022-11-25T13:47:49.181Z,8.70
2022-11-25T13:53:02.732Z,9.00
2022-11-25T13:58:10.619Z,8.80
2022-11-25T14:03:21.315Z,8.90
2022-11-25T14:08:47.770Z,8.70
2022-11-25T14:14:08.084Z,8.70
2022-11-25T14:19:43.232Z,9.20
2022-11-25T14:24:37.404Z,9.20
2022-11-25T14:29:46.439Z,9.10
2022-11-25T14:35:15.412Z,9.00
2022-11-25T14:40:36.080Z,9.00
2022-11-25T14:45:38.161Z,9.10
2022-11-25T14:50:41.603Z,9.10
2022-11-25T14:55:48.762Z,9.10
2022-11-25T15:00:59.378Z,9.20
2022-11-25T15:06:07.404Z,9.20
2022-11-25T15:11:19.243Z,9.20
2022-11-25T15:16:25.070Z,9.10
2022-11-25T15:21:48.401Z,9.10
2022-11-25T15:27:00.305Z,9.00
2022-11-25T15:32:02.143Z,9.60
2022-11-25T15:37:03.909Z,9.00
2022-11-25T15:42:24.016Z,11.00
2022-11-25T15:47:28.542Z,9.00
2022-11-25T15:52:33.602Z,9.00
2022-11-25T15:57:37.963Z,8.90
2022-11-25T16:02:39.842Z,10.30
2022-11-25T16:07:53.635Z,9.00
2022-11-25T16:13:23.484Z,8.90
2022-11-25T16:19:06.544Z,8.90
2022-11-25T16:24:41.593Z,8.80
2022-11-25T16:29:52.476Z,8.80
2022-11-25T16:35:02.148Z,8.80
2022-11-25T16:40:04.496Z,8.80
2022-11-25T16:45:27.978Z,8.70
2022-11-25T16:55:32.162Z,8.70
2022-11-25T17:00:40.296Z,8.70
2022-11-25T17:05:56.550Z,8.70
2022-11-25T17:10:59.640Z,8.80
2022-11-25T17:16:01.598Z,8.70
2022-11-25T17:21:03.427Z,8.80
2022-11-25T17:26:05.446Z,8.70
2022-11-25T17:36:11.080Z,8.70
2022-11-25T17:41:15.001Z,8.70
2022-11-25T17:46:17.611Z,8.70
2022-11-25T17:51:19.397Z,8.60
2022-11-25T17:56:27.076Z,8.70
2022-11-25T18:01:28.976Z,8.60
2022-11-25T18:06:30.767Z,9.40
2022-11-25T18:11:32.546Z,8.60
2022-11-25T18:16:35.506Z,8.40
2022-11-25T18:21:37.370Z,8.40
2022-11-25T18:26:47.886Z,8.40
2022-11-25T18:31:50.722Z,8.50
2022-11-25T18:36:53.684Z,9.30
2022-11-25T18:41:58.244Z,8.40
2022-11-25T18:47:00.021Z,8.40
2022-11-25T18:52:01.793Z,8.40
2022-11-25T18:57:04.136Z,9.10
2022-11-25T19:02:16.142Z,8.80
2022-11-25T19:07:17.953Z,8.40
2022-11-25T19:12:21.003Z,8.10
2022-11-25T19:17:24.353Z,8.20
2022-11-25T19:22:26.089Z,8.30
2022-11-25T19:27:28.744Z,8.30
2022-11-25T19:32:31.510Z,8.20
2022-11-25T19:37:33.420Z,8.20
2022-11-25T19:42:35.194Z,8.20
2022-11-25T19:47:37.049Z,8.10
2022-11-25T19:52:39.963Z,8.10
2022-11-25T19:57:42.219Z,8.00
2022-11-25T20:02:47.578Z,7.90
2022-11-25T20:07:49.549Z,8.10
2022-11-25T20:12:51.927Z,8.10
2022-11-25T20:17:58.503Z,8.00
2022-11-25T20:23:06.760Z,8.00
2022-11-25T20:28:23.398Z,7.90
2022-11-25T20:33:26.543Z,7.80
2022-11-25T20:38:30.224Z,7.80
2022-11-25T20:43:42.622Z,7.80
2022-11-25T20:48:45.213Z,7.70
2022-11-25T20:53:52.858Z,7.70
2022-11-25T20:58:54.764Z,7.50
2022-11-25T21:03:56.800Z,7.50
2022-11-25T21:09:01.094Z,8.80
2022-11-25T21:14:02.895Z,7.50
2022-11-25T21:19:04.793Z,8.50
2022-11-25T21:24:19.825Z,7.30
2022-11-25T21:29:22.074Z,7.30
2022-11-25T21:34:23.903Z,7.10
2022-11-25T21:39:34.033Z,7.30
2022-11-25T21:44:41.067Z,7.00
2022-11-25T21:49:43.099Z,6.80
2022-11-25T21:54:45.344Z,6.70
2022-11-25T21:59:47.867Z,6.60
2022-11-25T22:04:50.673Z,6.60
2022-11-25T22:09:52.407Z,6.50
2022-11-25T22:14:55.124Z,6.40
2022-11-25T22:19:57.422Z,6.40
2022-11-25T22:24:59.375Z,6.40
2022-11-25T22:30:01.393Z,6.30
2022-11-25T22:35:06.135Z,6.40
2022-11-25T22:40:08.618Z,6.40
2022-11-25T22:45:29.924Z,6.40
2022-11-25T22:50:34.181Z,6.30
2022-11-25T22:55:36.301Z,6.30
2022-11-25T23:00:42.681Z,6.30
2022-11-25T23:05:44.593Z,6.40
2022-11-25T23:10:47.740Z,6.40
2022-11-25T23:15:58.153Z,6.40
2022-11-25T23:21:00.107Z,6.50
2022-11-25T23:26:02.098Z,6.50
2022-11-25T23:31:04.954Z,6.50
2022-11-25T23:36:09.204Z,6.50
2022-11-25T23:41:25.363Z,6.60
2022-11-25T23:46:32.581Z,6.70
2022-11-25T23:51:34.408Z,6.80
2022-11-25T23:56:37.031Z,6.80
